createdAt,value
2022-11-13T00:06:05.108Z,7.90
2022-11-13T00:13:30.008Z,7.90
2022-11-13T00:20:49.207Z,7.90
2022-11-13T00:28:08.539Z,7.80
2022-11-13T00:35:28.232Z,7.70
2022-11-13T00:42:47.791Z,7.70
2022-11-13T00:50:07.587Z,7.70
2022-11-13T00:57:26.946Z,7.70
2022-11-13T01:04:46.180Z,7.60
2022-11-13T01:12:05.461Z,7.60
2022-11-13T01:19:24.664Z,7.50
2022-11-13T01:26:43.811Z,7.50
2022-11-13T01:34:03.374Z,7.40
2022-11-13T01:41:29.238Z,7.30
2022-11-13T01:48:57.809Z,7.30
2022-11-13T01:56:18.195Z,7.20
2022-11-13T02:03:37.622Z,7.10
2022-11-13T02:10:56.812Z,7.10
2022-11-13T02:18:18.635Z,7.00
2022-11-13T02:25:38.733Z,6.90
2022-11-13T02:32:59.198Z,6.80
2022-11-13T02:40:18.854Z,6.70
2022-11-13T02:47:38.176Z,6.70
2022-11-13T02:54:57.500Z,6.60
2022-11-13T03:02:16.719Z,6.50
2022-11-13T03:09:35.919Z,6.50
2022-11-13T03:16:55.309Z,6.40
2022-11-13T03:24:14.715Z,6.30
2022-11-13T03:31:34.391Z,6.20
2022-11-13T03:38:53.915Z,6.10
2022-11-13T03:46:13.240Z,6.00
2022-11-13T03:53:32.468Z,5.90
2022-11-13T04:00:54.694Z,5.70
2022-11-13T04:08:13.804Z,5.70
2022-11-13T04:15:33.114Z,5.60
2022-11-13T04:22:52.747Z,5.50
2022-11-13T04:30:12.277Z,5.40
2022-11-13T04:37:31.597Z,5.30
2022-11-13T04:44:50.772Z,5.30
2022-11-13T04:52:10.050Z,5.20
2022-11-13T04:59:29.354Z,5.10
2022-11-13T05:06:48.656Z,5.10
2022-11-13T05:14:07.992Z,5.10
2022-11-13T05:21:27.445Z,5.10
2022-11-13T05:28:46.881Z,5.10
2022-11-13T05:36:11.543Z,5.10
2022-11-13T05:43:30.800Z,5.10
2022-11-13T05:50:50.279Z,5.10
2022-11-13T05:58:11.651Z,5.00
2022-11-13T06:05:30.889Z,4.90
2022-11-13T06:12:50.194Z,4.80
2022-11-13T06:20:09.758Z,4.70
2022-11-13T06:27:28.433Z,4.70
2022-11-13T06:34:47.653Z,4.60
2022-11-13T06:42:07.139Z,4.50
2022-11-13T06:49:26.336Z,4.50
2022-11-13T06:56:45.786Z,4.40
2022-11-13T07:04:06.318Z,4.40
2022-11-13T07:11:25.575Z,4.40
2022-11-13T07:18:50.709Z,4.40
2022-11-13T07:26:11.487Z,4.40
2022-11-13T07:33:30.587Z,4.40
2022-11-13T07:40:50.836Z,4.40
2022-11-13T07:48:10.202Z,4.50
2022-11-13T07:55:30.172Z,4.60
2022-11-13T08:02:49.026Z,4.70
2022-11-13T08:10:09.735Z,4.80
2022-11-13T08:17:29.270Z,4.90
2022-11-13T08:24:48.747Z,5.10
2022-11-13T08:32:07.990Z,5.50
2022-11-13T08:39:27.128Z,5.60
2022-11-13T08:46:46.370Z,5.90
2022-11-13T08:54:05.772Z,6.20
2022-11-13T09:01:25.188Z,6.50
2022-11-13T09:08:44.462Z,6.70
2022-11-13T09:16:04.113Z,7.00
2022-11-13T09:23:23.640Z,7.20
2022-11-13T09:30:43.317Z,7.50
2022-11-13T09:38:10.462Z,7.80
2022-11-13T09:45:32.576Z,8.10
2022-11-13T09:52:53.506Z,8.40
2022-11-13T10:00:14.372Z,8.70
2022-11-13T10:07:55.789Z,9.00
2022-11-13T10:15:17.310Z,9.30
2022-11-13T10:22:48.341Z,9.60
2022-11-13T10:30:16.076Z,9.80
2022-11-13T10:37:35.367Z,10.10
2022-11-13T10:45:00.004Z,10.40
2022-11-13T10:52:28.785Z,10.80
2022-11-13T10:59:47.758Z,11.10
2022-11-13T11:07:21.436Z,11.40
2022-11-13T11:14:45.417Z,11.70
2022-11-13T11:22:14.771Z,11.80
2022-11-13T11:29:42.571Z,12.10
2022-11-13T11:37:26.180Z,12.40
2022-11-13T11:44:59.709Z,12.70
2022-11-13T11:52:30.373Z,13.20
2022-11-13T11:59:59.686Z,13.40
2022-11-13T12:07:41.804Z,13.70
2022-11-13T12:15:13.630Z,14.00
2022-11-13T12:22:53.165Z,14.20
2022-11-13T12:30:19.467Z,14.50
2022-11-13T12:37:59.092Z,14.80
2022-11-13T12:45:36.830Z,15.00
2022-11-13T12:53:03.396Z,15.20
2022-11-13T13:00:29.072Z,15.50
2022-11-13T13:08:17.407Z,15.60
2022-11-13T13:15:40.735Z,15.80
2022-11-13T13:23:05.956Z,16.00
2022-11-13T13:30:28.314Z,16.20
2022-11-13T13:38:32.848Z,16.40
2022-11-13T13:46:22.833Z,16.60
2022-11-13T13:53:42.221Z,16.90
2022-11-13T14:01:20.344Z,17.00
2022-11-13T14:08:39.328Z,17.20
2022-11-13T14:16:08.639Z,17.30
2022-11-13T14:23:29.631Z,17.30
2022-11-13T14:30:58.837Z,17.30
2022-11-13T14:38:21.633Z,17.20
2022-11-13T14:45:52.317Z,17.10
2022-11-13T14:53:11.625Z,16.80
2022-11-13T15:00:36.013Z,16.50
2022-11-13T15:07:56.669Z,16.30
2022-11-13T15:15:18.982Z,16.10
2022-11-13T15:22:39.727Z,15.80
2022-11-13T15:29:58.974Z,15.60
2022-11-13T15:37:18.438Z,15.40
2022-11-13T15:44:38.249Z,15.10
2022-11-13T15:51:57.413Z,14.60
2022-11-13T15:59:16.914Z,14.20
2022-11-13T16:06:36.212Z,13.90
2022-11-13T16:13:55.278Z,13.50
2022-11-13T16:21:14.932Z,13.10
2022-11-13T16:28:52.792Z,12.70
2022-11-13T16:36:22.827Z,12.40
2022-11-13T16:43:42.719Z,12.00
2022-11-13T16:51:02.393Z,11.70
2022-11-13T16:58:21.923Z,11.40
2022-11-13T17:05:41.251Z,11.10
2022-11-13T17:13:00.875Z,10.90
2022-11-13T17:20:20.092Z,10.60
2022-11-13T17:27:39.267Z,10.40
2022-11-13T17:34:58.660Z,10.10
2022-11-13T17:42:18.131Z,9.90
2022-11-13T17:49:37.675Z,9.70
2022-11-13T17:56:56.911Z,9.50
2022-11-13T18:04:16.266Z,9.30
2022-11-13T18:11:35.440Z,9.20
2022-11-13T18:18:56.454Z,9.10
2022-11-13T18:26:18.871Z,8.90
2022-11-13T18:33:38.011Z,8.80
2022-11-13T18:41:18.675Z,8.60
2022-11-13T18:48:39.649Z,8.50
2022-11-13T18:56:04.810Z,8.40
2022-11-13T19:03:24.660Z,8.20
2022-11-13T19:10:43.999Z,8.00
2022-11-13T19:18:04.681Z,7.90
2022-11-13T19:25:24.075Z,7.80
2022-11-13T19:32:43.288Z,7.70
2022-11-13T19:40:02.845Z,7.60
2022-11-13T19:47:22.252Z,7.60
2022-11-13T19:54:42.030Z,7.40
2022-11-13T20:02:01.395Z,7.30
2022-11-13T20:09:20.608Z,7.10
2022-11-13T20:16:39.960Z,7.00
2022-11-13T20:23:59.857Z,6.90
2022-11-13T20:31:22.108Z,6.80
2022-11-13T20:38:44.000Z,6.70
2022-11-13T20:46:05.259Z,6.60
2022-11-13T20:53:24.433Z,6.40
2022-11-13T21:00:43.916Z,6.30
2022-11-13T21:08:03.294Z,6.10
2022-11-13T21:15:22.754Z,6.00
2022-11-13T21:22:42.148Z,5.80
2022-11-13T21:30:01.639Z,5.70
2022-11-13T21:37:21.123Z,5.60
2022-11-13T21:44:40.569Z,5.60
2022-11-13T21:52:00.127Z,5.40
2022-11-13T21:59:19.669Z,5.30
2022-11-13T22:06:42.167Z,5.20
2022-11-13T22:14:02.148Z,5.10
2022-11-13T22:21:22.694Z,5.00
2022-11-13T22:28:44.331Z,4.90
2022-11-13T22:36:11.781Z,4.80
2022-11-13T22:43:36.191Z,4.70
2022-11-13T22:50:55.517Z,4.60
2022-11-13T22:58:14.948Z,4.50
2022-11-13T23:05:37.334Z,4.40
2022-11-13T23:12:57.161Z,4.30
2022-11-13T23:20:17.228Z,4.20
2022-11-13T23:27:36.437Z,4.00
2022-11-13T23:35:00.100Z,3.90
2022-11-13T23:42:33.311Z,3.90
2022-11-13T23:49:59.516Z,3.80
2022-11-13T23:57:19.211Z,3.80
